sensor_id;sensor_type;location;lat;lon;timestamp;pressure;altitude;pressure_sealevel;temperature;humidity
50434;BME280;36361;38.954;-9.002;2023-05-10T00:00:27;101455.09;;;18.78;100.00
50434;BME280;36361;38.954;-9.002;2023-05-10T00:01:28;101455.63;;;19.30;100.00
50434;BME280;36361;38.954;-9.002;2023-05-10T00:02:29;101459.56;;;19.17;100.00
50434;BME280;36361;38.954;-9.002;2023-05-10T00:03:30;101456.94;;;18.72;100.00
50434;BME280;36361;38.954;-9.002;2023-05-10T00:04:31;101453.44;;;19.32;100.00
50434;BME280;36361;38.954;-9.002;2023-05-10T00:05:32;101445.72;;;18.95;100.00
50434;BME280;36361;38.954;-9.002;2023-05-10T00:06:33;101452.69;;;18.36;100.00
50434;BME280;36361;38.954;-9.002;2023-05-10T00:07:33;101451.91;;;19.02;100.00
50434;BME280;36361;38.954;-9.002;2023-05-10T00:08:34;101452.22;;;19.23;100.00
50434;BME280;36361;38.954;-9.002;2023-05-10T00:09:35;101456.75;;;19.12;100.00
50434;BME280;36361;38.954;-9.002;2023-05-10T00:10:36;101454.81;;;19.13;100.00
50434;BME280;36361;38.954;-9.002;2023-05-10T00:11:37;101455.72;;;19.01;100.00
50434;BME280;36361;38.954;-9.002;2023-05-10T00:12:38;101455.53;;;18.41;100.00
50434;BME280;36361;38.954;-9.002;2023-05-10T00:13:40;101447.72;;;18.50;100.00
50434;BME280;36361;38.954;-9.002;2023-05-10T00:14:40;101450.72;;;18.65;100.00
50434;BME280;36361;38.954;-9.002;2023-05-10T00:15:43;101456.34;;;19.03;100.00
50434;BME280;36361;38.954;-9.002;2023-05-10T00:16:44;101463.91;;;19.30;100.00
50434;BME280;36361;38.954;-9.002;2023-05-10T00:17:45;101454.81;;;19.13;100.00
50434;BME280;36361;38.954;-9.002;2023-05-10T00:18:46;101452.06;;;18.96;100.00
50434;BME280;36361;38.954;-9.002;2023-05-10T00:19:46;101456.25;;;19.76;100.00
50434;BME280;36361;38.954;-9.002;2023-05-10T00:20:47;101448.19;;;19.30;99.65
50434;BME280;36361;38.954;-9.002;2023-05-10T00:21:49;101455.50;;;19.58;94.73
50434;BME280;36361;38.954;-9.002;2023-05-10T00:22:49;101449.97;;;19.58;100.00
50434;BME280;36361;38.954;-9.002;2023-05-10T00:23:50;101451.59;;;20.03;100.00
50434;BME280;36361;38.954;-9.002;2023-05-10T00:24:51;101448.22;;;19.14;100.00
50434;BME280;36361;38.954;-9.002;2023-05-10T00:25:51;101446.13;;;19.43;100.00
50434;BME280;36361;38.954;-9.002;2023-05-10T00:26:52;101438.53;;;19.55;100.00
50434;BME280;36361;38.954;-9.002;2023-05-10T00:27:53;101442.13;;;19.33;100.00
50434;BME280;36361;38.954;-9.002;2023-05-10T00:28:55;101442.66;;;18.75;100.00
50434;BME280;36361;38.954;-9.002;2023-05-10T00:29:57;101449.19;;;19.24;100.00
50434;BME280;36361;38.954;-9.002;2023-05-10T00:30:57;101453.19;;;19.33;100.00
50434;BME280;36361;38.954;-9.002;2023-05-10T00:31:58;101440.09;;;19.46;100.00
50434;BME280;36361;38.954;-9.002;2023-05-10T00:32:59;101444.69;;;19.18;100.00
50434;BME280;36361;38.954;-9.002;2023-05-10T00:34:00;101450.22;;;19.01;100.00
50434;BME280;36361;38.954;-9.002;2023-05-10T00:35:01;101446.81;;;19.33;100.00
50434;BME280;36361;38.954;-9.002;2023-05-10T00:36:02;101454.28;;;19.54;100.00
50434;BME280;36361;38.954;-9.002;2023-05-10T00:37:03;101445.00;;;19.60;100.00
50434;BME280;36361;38.954;-9.002;2023-05-10T00:38:04;101444.06;;;19.55;100.00
50434;BME280;36361;38.954;-9.002;2023-05-10T00:39:07;101448.28;;;19.79;100.00
50434;BME280;36361;38.954;-9.002;2023-05-10T00:40:08;101447.84;;;19.27;100.00
50434;BME280;36361;38.954;-9.002;2023-05-10T00:41:09;101453.72;;;19.96;100.00
50434;BME280;36361;38.954;-9.002;2023-05-10T00:42:15;101440.91;;;19.46;100.00
50434;BME280;36361;38.954;-9.002;2023-05-10T00:43:16;101437.94;;;19.48;100.00
50434;BME280;36361;38.954;-9.002;2023-05-10T00:44:17;101440.72;;;19.70;100.00
50434;BME280;36361;38.954;-9.002;2023-05-10T00:45:18;101441.06;;;19.56;100.00
50434;BME280;36361;38.954;-9.002;2023-05-10T00:46:19;101442.41;;;19.98;100.00
50434;BME280;36361;38.954;-9.002;2023-05-10T00:47:20;101437.69;;;19.71;100.00
50434;BME280;36361;38.954;-9.002;2023-05-10T00:48:22;101438.34;;;20.05;100.00
50434;BME280;36361;38.954;-9.002;2023-05-10T00:49:23;101433.75;;;19.89;100.00
50434;BME280;36361;38.954;-9.002;2023-05-10T00:50:23;101439.59;;;19.93;100.00
50434;BME280;36361;38.954;-9.002;2023-05-10T00:51:25;101433.09;;;20.31;99.25
50434;BME280;36361;38.954;-9.002;2023-05-10T00:52:27;101430.28;;;20.90;98.76
50434;BME280;36361;38.954;-9.002;2023-05-10T00:53:31;101429.16;;;20.86;95.61
50434;BME280;36361;38.954;-9.002;2023-05-10T00:54:32;101435.50;;;19.73;90.29
50434;BME280;36361;38.954;-9.002;2023-05-10T00:55:33;101436.84;;;19.49;96.62
50434;BME280;36361;38.954;-9.002;2023-05-10T00:56:34;101435.97;;;19.92;100.00
50434;BME280;36361;38.954;-9.002;2023-05-10T00:57:35;101421.78;;;20.05;100.00
50434;BME280;36361;38.954;-9.002;2023-05-10T00:58:36;101431.72;;;19.57;100.00
50434;BME280;36361;38.954;-9.002;2023-05-10T00:59:39;101431.56;;;19.91;96.88
50434;BME280;36361;38.954;-9.002;2023-05-10T01:00:41;101433.56;;;19.96;100.00
50434;BME280;36361;38.954;-9.002;2023-05-10T01:01:45;101431.78;;;20.11;92.08
50434;BME280;36361;38.954;-9.002;2023-05-10T01:02:46;101431.91;;;19.95;100.00
50434;BME280;36361;38.954;-9.002;2023-05-10T01:03:47;101440.00;;;19.19;98.32
50434;BME280;36361;38.954;-9.002;2023-05-10T01:04:49;101442.78;;;19.41;100.00
50434;BME280;36361;38.954;-9.002;2023-05-10T01:05:50;101431.09;;;19.55;100.00
50434;BME280;36361;38.954;-9.002;2023-05-10T01:06:52;101433.28;;;19.53;100.00
50434;BME280;36361;38.954;-9.002;2023-05-10T01:07:53;101431.16;;;20.04;100.00
50434;BME280;36361;38.954;-9.002;2023-05-10T01:08:55;101435.56;;;19.18;100.00
50434;BME280;36361;38.954;-9.002;2023-05-10T01:09:56;101442.25;;;19.22;100.00
50434;BME280;36361;38.954;-9.002;2023-05-10T01:10:58;101428.03;;;19.52;96.41
50434;BME280;36361;38.954;-9.002;2023-05-10T01:11:59;101428.50;;;19.66;100.00
50434;BME280;36361;38.954;-9.002;2023-05-10T01:13:03;101428.59;;;19.54;100.00
50434;BME280;36361;38.954;-9.002;2023-05-10T01:14:10;101428.84;;;19.69;100.00
50434;BME280;36361;38.954;-9.002;2023-05-10T01:15:12;101432.28;;;19.81;100.00
50434;BME280;36361;38.954;-9.002;2023-05-10T01:16:20;101430.78;;;19.30;98.58
50434;BME280;36361;38.954;-9.002;2023-05-10T01:17:22;101422.91;;;18.83;100.00
50434;BME280;36361;38.954;-9.002;2023-05-10T01:18:23;101421.47;;;18.64;100.00
50434;BME280;36361;38.954;-9.002;2023-05-10T01:19:26;101420.91;;;17.59;100.00
50434;BME280;36361;38.954;-9.002;2023-05-10T01:20:35;101416.44;;;18.27;100.00
50434;BME280;36361;38.954;-9.002;2023-05-10T01:22:22;101412.81;;;18.10;100.00
50434;BME280;36361;38.954;-9.002;2023-05-10T01:26:11;101412.91;;;18.15;100.00
50434;BME280;36361;38.954;-9.002;2023-05-10T01:29:09;101408.59;;;18.53;100.00
50434;BME280;36361;38.954;-9.002;2023-05-10T01:34:07;101404.22;;;18.85;100.00
50434;BME280;36361;38.954;-9.002;2023-05-10T01:35:17;101410.41;;;19.14;100.00
50434;BME280;36361;38.954;-9.002;2023-05-10T01:36:32;101402.19;;;18.81;100.00
50434;BME280;36361;38.954;-9.002;2023-05-10T01:37:46;101406.38;;;19.22;100.00
50434;BME280;36361;38.954;-9.002;2023-05-10T01:38:59;101403.03;;;18.81;100.00
50434;BME280;36361;38.954;-9.002;2023-05-10T01:41:33;101406.75;;;18.92;100.00
50434;BME280;36361;38.954;-9.002;2023-05-10T01:42:49;101405.09;;;19.51;100.00
50434;BME280;36361;38.954;-9.002;2023-05-10T01:45:20;101403.09;;;19.91;100.00
50434;BME280;36361;38.954;-9.002;2023-05-10T01:46:34;101409.75;;;19.68;100.00
50434;BME280;36361;38.954;-9.002;2023-05-10T01:47:40;101404.34;;;19.78;100.00
50434;BME280;36361;38.954;-9.002;2023-05-10T01:48:47;101407.03;;;19.73;100.00
50434;BME280;36361;38.954;-9.002;2023-05-10T01:49:54;101396.56;;;19.53;100.00
50434;BME280;36361;38.954;-9.002;2023-05-10T01:50:56;101397.94;;;19.50;100.00
50434;BME280;36361;38.954;-9.002;2023-05-10T01:52:06;101412.53;;;19.29;100.00
50434;BME280;36361;38.954;-9.002;2023-05-10T01:53:11;101407.78;;;19.02;100.00
50434;BME280;36361;38.954;-9.002;2023-05-10T01:54:13;101404.78;;;18.87;100.00
50434;BME280;36361;38.954;-9.002;2023-05-10T01:55:19;101400.00;;;18.83;100.00
50434;BME280;36361;38.954;-9.002;2023-05-10T01:56:24;101407.28;;;18.38;100.00
50434;BME280;36361;38.954;-9.002;2023-05-10T01:57:32;101403.50;;;18.44;100.00
50434;BME280;36361;38.954;-9.002;2023-05-10T01:58:34;101407.28;;;18.38;100.00
50434;BME280;36361;38.954;-9.002;2023-05-10T01:59:37;101402.00;;;18.54;100.00
50434;BME280;36361;38.954;-9.002;2023-05-10T02:00:46;101396.44;;;18.48;100.00
50434;BME280;36361;38.954;-9.002;2023-05-10T02:01:48;101400.72;;;18.28;100.00
50434;BME280;36361;38.954;-9.002;2023-05-10T02:02:51;101394.81;;;17.90;100.00
50434;BME280;36361;38.954;-9.002;2023-05-10T02:03:53;101393.31;;;17.83;100.00
50434;BME280;36361;38.954;-9.002;2023-05-10T02:04:56;101391.31;;;17.78;100.00
50434;BME280;36361;38.954;-9.002;2023-05-10T02:05:59;101393.75;;;18.20;100.00
50434;BME280;36361;38.954;-9.002;2023-05-10T02:07:00;101388.69;;;17.72;100.00
50434;BME280;36361;38.954;-9.002;2023-05-10T02:08:03;101386.00;;;17.88;100.00
50434;BME280;36361;38.954;-9.002;2023-05-10T02:09:06;101394.72;;;18.14;100.00
50434;BME280;36361;38.954;-9.002;2023-05-10T02:10:15;101390.00;;;17.98;100.00
50434;BME280;36361;38.954;-9.002;2023-05-10T02:11:18;101396.31;;;17.81;100.00
50434;BME280;36361;38.954;-9.002;2023-05-10T02:12:23;101389.41;;;17.67;100.00
50434;BME280;36361;38.954;-9.002;2023-05-10T02:13:25;101400.41;;;17.67;100.00
50434;BME280;36361;38.954;-9.002;2023-05-10T02:14:30;101393.50;;;17.53;100.00
50434;BME280;36361;38.954;-9.002;2023-05-10T02:15:33;101394.91;;;17.67;100.00
50434;BME280;36361;38.954;-9.002;2023-05-10T02:16:35;101406.72;;;17.27;100.00
50434;BME280;36361;38.954;-9.002;2023-05-10T02:17:37;101401.47;;;17.38;100.00
50434;BME280;36361;38.954;-9.002;2023-05-10T02:18:43;101407.63;;;17.04;100.00
50434;BME280;36361;38.954;-9.002;2023-05-10T02:19:48;101403.16;;;17.15;100.00
50434;BME280;36361;38.954;-9.002;2023-05-10T02:20:51;101403.38;;;17.25;100.00
50434;BME280;36361;38.954;-9.002;2023-05-10T02:21:54;101397.19;;;17.30;100.00
50434;BME280;36361;38.954;-9.002;2023-05-10T02:22:57;101403.13;;;17.27;100.00
50434;BME280;36361;38.954;-9.002;2023-05-10T02:23:59;101399.44;;;17.33;100.00
50434;BME280;36361;38.954;-9.002;2023-05-10T02:25:03;101395.50;;;17.17;100.00
50434;BME280;36361;38.954;-9.002;2023-05-10T02:26:05;101392.66;;;17.12;100.00
50434;BME280;36361;38.954;-9.002;2023-05-10T02:27:06;101388.81;;;17.13;100.00
50434;BME280;36361;38.954;-9.002;2023-05-10T02:28:11;101393.03;;;17.04;100.00
50434;BME280;36361;38.954;-9.002;2023-05-10T02:29:12;101398.88;;;16.96;100.00
50434;BME280;36361;38.954;-9.002;2023-05-10T02:30:15;101404.13;;;17.09;100.00
50434;BME280;36361;38.954;-9.002;2023-05-10T02:31:17;101402.94;;;17.05;100.00
50434;BME280;36361;38.954;-9.002;2023-05-10T02:32:18;101402.94;;;17.05;100.00
50434;BME280;36361;38.954;-9.002;2023-05-10T02:33:20;101399.69;;;17.08;100.00
50434;BME280;36361;38.954;-9.002;2023-05-10T02:34:22;101405.44;;;17.06;100.00
50434;BME280;36361;38.954;-9.002;2023-05-10T02:35:27;101400.06;;;17.00;100.00
50434;BME280;36361;38.954;-9.002;2023-05-10T02:36:31;101401.50;;;16.91;100.00
50434;BME280;36361;38.954;-9.002;2023-05-10T02:37:33;101398.63;;;17.09;100.00
50434;BME280;36361;38.954;-9.002;2023-05-10T02:38:35;101394.66;;;17.17;100.00
50434;BME280;36361;38.954;-9.002;2023-05-10T02:39:37;101401.28;;;17.04;100.00
50434;BME280;36361;38.954;-9.002;2023-05-10T02:40:41;101395.78;;;16.92;100.00
50434;BME280;36361;38.954;-9.002;2023-05-10T02:41:44;101403.66;;;17.12;100.00
50434;BME280;36361;38.954;-9.002;2023-05-10T02:42:48;101395.66;;;16.99;100.00
50434;BME280;36361;38.954;-9.002;2023-05-10T02:43:51;101395.78;;;17.04;100.00
50434;BME280;36361;38.954;-9.002;2023-05-10T02:44:56;101396.00;;;16.91;100.00
50434;BME280;36361;38.954;-9.002;2023-05-10T02:46:00;101389.06;;;17.00;100.00
50434;BME280;36361;38.954;-9.002;2023-05-10T02:47:00;101396.50;;;16.88;100.00
50434;BME280;36361;38.954;-9.002;2023-05-10T02:48:03;101385.72;;;16.98;100.00
50434;BME280;36361;38.954;-9.002;2023-05-10T02:49:05;101392.81;;;16.94;100.00
50434;BME280;36361;38.954;-9.002;2023-05-10T02:50:06;101396.84;;;16.91;100.00
50434;BME280;36361;38.954;-9.002;2023-05-10T02:51:07;101388.38;;;16.93;100.00
50434;BME280;36361;38.954;-9.002;2023-05-10T02:52:09;101392.91;;;16.99;100.00
50434;BME280;36361;38.954;-9.002;2023-05-10T02:53:11;101383.84;;;16.87;100.00
50434;BME280;36361;38.954;-9.002;2023-05-10T02:54:19;101387.53;;;16.81;100.00
50434;BME280;36361;38.954;-9.002;2023-05-10T02:55:26;101385.28;;;16.77;100.00
50434;BME280;36361;38.954;-9.002;2023-05-10T02:56:34;101389.94;;;16.77;100.00
50434;BME280;36361;38.954;-9.002;2023-05-10T02:57:40;101388.59;;;16.80;100.00
50434;BME280;36361;38.954;-9.002;2023-05-10T02:58:41;101392.56;;;16.84;100.00
50434;BME280;36361;38.954;-9.002;2023-05-10T02:59:42;101391.25;;;16.74;100.00
50434;BME280;36361;38.954;-9.002;2023-05-10T03:00:46;101393.66;;;16.83;100.00
50434;BME280;36361;38.954;-9.002;2023-05-10T03:01:47;101395.19;;;16.78;100.00
50434;BME280;36361;38.954;-9.002;2023-05-10T03:02:48;101392.09;;;16.75;100.00
50434;BME280;36361;38.954;-9.002;2023-05-10T03:03:49;101394.47;;;16.71;100.00
50434;BME280;36361;38.954;-9.002;2023-05-10T03:04:49;101393.94;;;16.63;100.00
50434;BME280;36361;38.954;-9.002;2023-05-10T03:05:50;101389.44;;;16.68;100.00
50434;BME280;36361;38.954;-9.002;2023-05-10T03:06:51;101395.53;;;16.70;100.00
50434;BME280;36361;38.954;-9.002;2023-05-10T03:07:52;101398.88;;;16.72;100.00
50434;BME280;36361;38.954;-9.002;2023-05-10T03:08:54;101392.09;;;16.75;100.00
50434;BME280;36361;38.954;-9.002;2023-05-10T03:09:55;101390.25;;;16.57;100.00
50434;BME280;36361;38.954;-9.002;2023-05-10T03:13:32;101384.41;;;16.65;100.00
50434;BME280;36361;38.954;-9.002;2023-05-10T03:15:00;101387.03;;;16.60;100.00
50434;BME280;36361;38.954;-9.002;2023-05-10T03:16:08;101384.16;;;16.67;100.00
50434;BME280;36361;38.954;-9.002;2023-05-10T03:17:16;101378.59;;;16.73;100.00
50434;BME280;36361;38.954;-9.002;2023-05-10T03:18:22;101386.09;;;16.66;100.00
50434;BME280;36361;38.954;-9.002;2023-05-10T03:21:03;101374.75;;;16.74;100.00
50434;BME280;36361;38.954;-9.002;2023-05-10T03:22:10;101378.31;;;17.10;100.00
50434;BME280;36361;38.954;-9.002;2023-05-10T03:23:22;101377.13;;;17.06;100.00
50434;BME280;36361;38.954;-9.002;2023-05-10T03:24:27;101370.22;;;16.92;100.00
50434;BME280;36361;38.954;-9.002;2023-05-10T03:25:31;101372.97;;;16.92;100.00
50434;BME280;36361;38.954;-9.002;2023-05-10T03:26:33;101381.66;;;16.89;100.00
50434;BME280;36361;38.954;-9.002;2023-05-10T03:27:42;101370.91;;;16.99;100.00
50434;BME280;36361;38.954;-9.002;2023-05-10T03:28:44;101368.91;;;16.83;100.00
50434;BME280;36361;38.954;-9.002;2023-05-10T03:29:46;101372.13;;;16.80;100.00
50434;BME280;36361;38.954;-9.002;2023-05-10T03:30:49;101373.19;;;16.90;100.00
50434;BME280;36361;38.954;-9.002;2023-05-10T03:31:50;101371.16;;;16.86;100.00
50434;BME280;36361;38.954;-9.002;2023-05-10T03:32:51;101366.16;;;16.83;100.00
50434;BME280;36361;38.954;-9.002;2023-05-10T03:33:52;101365.66;;;16.86;100.00
50434;BME280;36361;38.954;-9.002;2023-05-10T03:34:58;101359.31;;;16.97;100.00
50434;BME280;36361;38.954;-9.002;2023-05-10T03:35:59;101362.06;;;16.97;100.00
50434;BME280;36361;38.954;-9.002;2023-05-10T03:37:00;101357.31;;;16.92;100.00
50434;BME280;36361;38.954;-9.002;2023-05-10T03:38:05;101358.28;;;16.74;100.00
50434;BME280;36361;38.954;-9.002;2023-05-10T03:39:05;101362.56;;;16.70;100.00
50434;BME280;36361;38.954;-9.002;2023-05-10T03:40:07;101361.13;;;16.80;100.00
50434;BME280;36361;38.954;-9.002;2023-05-10T03:41:11;101364.22;;;16.71;100.00
50434;BME280;36361;38.954;-9.002;2023-05-10T03:42:12;101371.25;;;16.67;100.00
50434;BME280;36361;38.954;-9.002;2023-05-10T03:43:12;101364.47;;;16.70;100.00
50434;BME280;36361;38.954;-9.002;2023-05-10T03:44:13;101365.91;;;16.72;100.00
50434;BME280;36361;38.954;-9.002;2023-05-10T03:45:14;101359.88;;;16.64;100.00
50434;BME280;36361;38.954;-9.002;2023-05-10T03:46:15;101359.16;;;16.45;100.00
50434;BME280;36361;38.954;-9.002;2023-05-10T03:47:16;101355.72;;;16.49;100.00
50434;BME280;36361;38.954;-9.002;2023-05-10T03:48:16;101358.81;;;16.41;100.00
50434;BME280;36361;38.954;-9.002;2023-05-10T03:49:17;101355.38;;;16.46;100.00
50434;BME280;36361;38.954;-9.002;2023-05-10T03:50:21;101357.88;;;16.59;100.00
50434;BME280;36361;38.954;-9.002;2023-05-10T03:51:22;101346.88;;;16.47;100.00
50434;BME280;36361;38.954;-9.002;2023-05-10T03:52:25;101352.72;;;16.51;100.00
50434;BME280;36361;38.954;-9.002;2023-05-10T03:53:26;101358.47;;;16.61;100.00
50434;BME280;36361;38.954;-9.002;2023-05-10T03:54:27;101363.50;;;16.64;100.00
50434;BME280;36361;38.954;-9.002;2023-05-10T03:55:28;101356.19;;;16.58;100.00
50434;BME280;36361;38.954;-9.002;2023-05-10T03:56:30;101352.84;;;16.68;100.00
50434;BME280;36361;38.954;-9.002;2023-05-10T03:57:31;101345.31;;;16.63;100.00
50434;BME280;36361;38.954;-9.002;2023-05-10T03:58:32;101342.84;;;16.73;100.00
50434;BME280;36361;38.954;-9.002;2023-05-10T03:59:32;101354.78;;;16.67;100.00
50434;BME280;36361;38.954;-9.002;2023-05-10T04:00:33;101348.31;;;16.62;100.00
50434;BME280;36361;38.954;-9.002;2023-05-10T04:01:34;101347.84;;;16.65;100.00
50434;BME280;36361;38.954;-9.002;2023-05-10T04:02:35;101358.34;;;16.44;100.00
50434;BME280;36361;38.954;-9.002;2023-05-10T04:03:36;101349.75;;;16.53;100.00
50434;BME280;36361;38.954;-9.002;2023-05-10T04:04:37;101352.03;;;16.56;100.00
50434;BME280;36361;38.954;-9.002;2023-05-10T04:05:38;101352.03;;;16.67;100.00
50434;BME280;36361;38.954;-9.002;2023-05-10T04:06:39;101358.94;;;16.58;100.00
50434;BME280;36361;38.954;-9.002;2023-05-10T04:07:40;101336.25;;;16.28;100.00
50434;BME280;36361;38.954;-9.002;2023-05-10T04:08:40;101349.38;;;16.49;100.00
50434;BME280;36361;38.954;-9.002;2023-05-10T04:09:42;101340.31;;;16.60;100.00
50434;BME280;36361;38.954;-9.002;2023-05-10T04:10:42;101340.19;;;16.67;100.00
50434;BME280;36361;38.954;-9.002;2023-05-10T04:11:43;101358.00;;;16.64;100.00
50434;BME280;36361;38.954;-9.002;2023-05-10T04:12:44;101354.63;;;16.62;100.00
50434;BME280;36361;38.954;-9.002;2023-05-10T04:13:45;101343.06;;;16.72;100.00
50434;BME280;36361;38.954;-9.002;2023-05-10T04:14:45;101347.97;;;16.58;100.00
50434;BME280;36361;38.954;-9.002;2023-05-10T04:15:46;101334.53;;;16.27;100.00
50434;BME280;36361;38.954;-9.002;2023-05-10T04:16:47;101343.41;;;16.52;100.00
50434;BME280;36361;38.954;-9.002;2023-05-10T04:17:47;101348.44;;;16.67;100.00
50434;BME280;36361;38.954;-9.002;2023-05-10T04:18:48;101352.13;;;16.61;100.00
50434;BME280;36361;38.954;-9.002;2023-05-10T04:19:52;101341.53;;;16.64;100.00
50434;BME280;36361;38.954;-9.002;2023-05-10T04:21:00;101347.03;;;16.76;100.00
50434;BME280;36361;38.954;-9.002;2023-05-10T04:22:02;101336.81;;;17.00;100.00
50434;BME280;36361;38.954;-9.002;2023-05-10T04:23:03;101339.72;;;16.93;100.00
50434;BME280;36361;38.954;-9.002;2023-05-10T04:24:03;101340.56;;;16.94;100.00
50434;BME280;36361;38.954;-9.002;2023-05-10T04:25:05;101344.00;;;17.13;100.00
50434;BME280;36361;38.954;-9.002;2023-05-10T04:26:06;101341.44;;;17.23;100.00
50434;BME280;36361;38.954;-9.002;2023-05-10T04:27:07;101341.50;;;17.11;100.00
50434;BME280;36361;38.954;-9.002;2023-05-10T04:28:07;101338.38;;;17.19;100.00
50434;BME280;36361;38.954;-9.002;2023-05-10T04:29:08;101343.16;;;17.12;100.00
50434;BME280;36361;38.954;-9.002;2023-05-10T04:30:09;101342.34;;;16.88;100.00
50434;BME280;36361;38.954;-9.002;2023-05-10T04:31:10;101332.69;;;16.86;100.00
50434;BME280;36361;38.954;-9.002;2023-05-10T04:32:11;101328.41;;;17.18;100.00
50434;BME280;36361;38.954;-9.002;2023-05-10T04:33:12;101331.94;;;17.02;100.00
50434;BME280;36361;38.954;-9.002;2023-05-10T04:34:13;101340.56;;;16.94;100.00
50434;BME280;36361;38.954;-9.002;2023-05-10T04:35:19;101334.81;;;16.95;100.00
50434;BME280;36361;38.954;-9.002;2023-05-10T04:36:20;101334.84;;;16.84;100.00
50434;BME280;36361;38.954;-9.002;2023-05-10T04:37:21;101333.38;;;16.93;100.00
50434;BME280;36361;38.954;-9.002;2023-05-10T04:38:23;101339.97;;;16.57;100.00
50434;BME280;36361;38.954;-9.002;2023-05-10T04:39:24;101330.66;;;16.69;100.00
50434;BME280;36361;38.954;-9.002;2023-05-10T04:40:25;101335.66;;;16.61;100.00
50434;BME280;36361;38.954;-9.002;2023-05-10T04:41:26;101330.88;;;16.68;100.00
50434;BME280;36361;38.954;-9.002;2023-05-10T04:42:26;101330.03;;;16.56;100.00
50434;BME280;36361;38.954;-9.002;2023-05-10T04:43:27;101334.81;;;16.60;100.00
50434;BME280;36361;38.954;-9.002;2023-05-10T04:44:28;101335.78;;;16.77;100.00
50434;BME280;36361;38.954;-9.002;2023-05-10T04:45:29;101330.78;;;16.74;100.00
50434;BME280;36361;38.954;-9.002;2023-05-10T04:46:33;101326.97;;;16.75;100.00
50434;BME280;36361;38.954;-9.002;2023-05-10T04:47:37;101322.53;;;16.74;100.00
50434;BME280;36361;38.954;-9.002;2023-05-10T04:48:37;101322.63;;;16.80;100.00
50434;BME280;36361;38.954;-9.002;2023-05-10T04:49:38;101333.63;;;16.80;100.00
50434;BME280;36361;38.954;-9.002;2023-05-10T04:50:39;101331.63;;;16.75;100.00
50434;BME280;36361;38.954;-9.002;2023-05-10T04:51:40;101321.47;;;16.75;100.00
50434;BME280;36361;38.954;-9.002;2023-05-10T04:52:40;101328.50;;;16.71;100.00
50434;BME280;36361;38.954;-9.002;2023-05-10T04:53:41;101328.38;;;16.78;100.00
50434;BME280;36361;38.954;-9.002;2023-05-10T04:54:42;101325.94;;;17.05;100.00
50434;BME280;36361;38.954;-9.002;2023-05-10T04:55:42;101327.53;;;16.89;100.00
50434;BME280;36361;38.954;-9.002;2023-05-10T04:56:43;101326.22;;;16.80;100.00
50434;BME280;36361;38.954;-9.002;2023-05-10T04:57:44;101314.16;;;16.69;100.00
50434;BME280;36361;38.954;-9.002;2023-05-10T04:58:45;101329.44;;;16.54;100.00
50434;BME280;36361;38.954;-9.002;2023-05-10T04:59:46;101327.91;;;16.46;100.00
50434;BME280;36361;38.954;-9.002;2023-05-10T05:00:46;101329.91;;;16.50;100.00
50434;BME280;36361;38.954;-9.002;2023-05-10T05:01:47;101325.38;;;16.44;100.00
50434;BME280;36361;38.954;-9.002;2023-05-10T05:02:48;101326.34;;;16.50;100.00
50434;BME280;36361;38.954;-9.002;2023-05-10T05:03:49;101326.19;;;16.45;100.00
50434;BME280;36361;38.954;-9.002;2023-05-10T05:04:49;101321.78;;;16.44;100.00
50434;BME280;36361;38.954;-9.002;2023-05-10T05:05:50;101323.34;;;16.40;100.00
50434;BME280;36361;38.954;-9.002;2023-05-10T05:06:51;101316.03;;;16.45;100.00
50434;BME280;36361;38.954;-9.002;2023-05-10T05:07:51;101319.88;;;16.33;100.00
50434;BME280;36361;38.954;-9.002;2023-05-10T05:08:52;101327.16;;;16.39;100.00
50434;BME280;36361;38.954;-9.002;2023-05-10T05:09:53;101321.31;;;16.59;100.00
50434;BME280;36361;38.954;-9.002;2023-05-10T05:10:53;101328.59;;;16.65;100.00
50434;BME280;36361;38.954;-9.002;2023-05-10T05:11:55;101330.66;;;16.69;100.00
50434;BME280;36361;38.954;-9.002;2023-05-10T05:12:55;101326.81;;;16.70;100.00
50434;BME280;36361;38.954;-9.002;2023-05-10T05:13:56;101324.31;;;16.81;100.00
50434;BME280;36361;38.954;-9.002;2023-05-10T05:14:59;101322.19;;;16.83;100.00
50434;BME280;36361;38.954;-9.002;2023-05-10T05:16:01;101325.25;;;16.98;100.00
50434;BME280;36361;38.954;-9.002;2023-05-10T05:17:02;101318.81;;;16.81;100.00
50434;BME280;36361;38.954;-9.002;2023-05-10T05:18:04;101322.19;;;17.23;100.00
50434;BME280;36361;38.954;-9.002;2023-05-10T05:19:04;101309.59;;;17.39;100.00
50434;BME280;36361;38.954;-9.002;2023-05-10T05:20:06;101323.34;;;17.67;100.00
50434;BME280;36361;38.954;-9.002;2023-05-10T05:21:18;101317.16;;;17.60;100.00
50434;BME280;36361;38.954;-9.002;2023-05-10T05:22:19;101333.75;;;17.37;100.00
50434;BME280;36361;38.954;-9.002;2023-05-10T05:23:20;101322.78;;;17.53;100.00
50434;BME280;36361;38.954;-9.002;2023-05-10T05:24:25;101313.69;;;17.24;100.00
50434;BME280;36361;38.954;-9.002;2023-05-10T05:25:25;101323.66;;;17.14;100.00
50434;BME280;36361;38.954;-9.002;2023-05-10T05:26:26;101325.44;;;17.08;100.00
50434;BME280;36361;38.954;-9.002;2023-05-10T05:27:27;101322.69;;;17.20;100.00
50434;BME280;36361;38.954;-9.002;2023-05-10T05:28:28;101331.22;;;16.95;100.00
50434;BME280;36361;38.954;-9.002;2023-05-10T05:29:33;101322.75;;;16.96;100.00
50434;BME280;36361;38.954;-9.002;2023-05-10T05:30:34;101317.88;;;17.27;100.00
50434;BME280;36361;38.954;-9.002;2023-05-10T05:31:34;101318.56;;;17.34;100.00
50434;BME280;36361;38.954;-9.002;2023-05-10T05:32:35;101319.56;;;17.85;100.00
50434;BME280;36361;38.954;-9.002;2023-05-10T05:33:36;101326.38;;;17.54;100.00
50434;BME280;36361;38.954;-9.002;2023-05-10T05:34:37;101313.06;;;17.34;100.00